»·PEaware :: N3891R KAVX-KSAN

N3891R :: KAVX-KSAN

FLIGHT INFORMATION

Flight Status: Arrived
Operator: Privately registered:
United States
More flights under this callsign
Pilot: Markus B. (22479)
Aircraft: BEECH AIRCRAFT BARON
(BE58)
More flights by this aircraft type
Origin: KAVX Catalina
United States
Destination: KSAN San Diego Intl-Lindbergh
United States
More flights between these airports :: More routes between these airports
Route: +SXC V208 OCN V23 MZB
File this flight plan on PilotEdge
Remarks: I-8
Altitude:
(Current/Filed)
4,000ft
Speed:
(Current/Filed)
160kts
Departed: 27-Jan-19 08:57 AM
Arrived: 27-Jan-19 09:46 AM
Distance/Time
Traveled:
74nm/0:48
Distance/Time
To Go:
Arrived

Flight Plot

Page will automatically refresh every two minutes.


Map Options




Map Legend


Flown Route
Filed Route
Departure Airport
Arrival Airport
Navaid (VOR, NDB)
Fix

Horizontal Profiles

Position Reports

Time Latitude Longitude Heading Altitude Ground
Speed
27-Jan-19 08:35 33.403293 -118.415954 45 1606ft 0kts
27-Jan-19 08:36 33.403293 -118.415954 45 1606ft 0kts
27-Jan-19 08:37 33.403293 -118.415954 45 1606ft 0kts
27-Jan-19 08:38 33.403293 -118.415954 45 1606ft 0kts
27-Jan-19 08:39 33.403293 -118.415954 45 1606ft 0kts
27-Jan-19 08:40 33.403293 -118.415954 45 1606ft 0kts
27-Jan-19 08:41 33.403293 -118.415954 45 1606ft 0kts
27-Jan-19 08:42 33.403293 -118.415954 45 1606ft 0kts
27-Jan-19 08:43 33.403293 -118.415954 45 1606ft 0kts
27-Jan-19 08:44 33.403293 -118.415954 45 1606ft 0kts
27-Jan-19 08:45 33.403293 -118.415954 45 1606ft 0kts
27-Jan-19 08:46 33.403293 -118.415954 45 1606ft 0kts
27-Jan-19 08:47 33.403293 -118.415954 45 1606ft 0kts
27-Jan-19 08:48 33.403293 -118.415954 45 1606ft 0kts
27-Jan-19 08:49 33.403531 -118.415501 65 1606ft 3kts
27-Jan-19 08:50 33.403628 -118.415242 66 1606ft 0kts
27-Jan-19 08:51 33.403628 -118.415242 66 1606ft 0kts
27-Jan-19 08:52 33.403628 -118.415242 66 1606ft 0kts
27-Jan-19 08:53 33.405504 -118.414223 54 1606ft 10kts
27-Jan-19 08:54 33.407161 -118.411400 48 1606ft 2kts
27-Jan-19 08:55 33.407355 -118.411747 244 1606ft 11kts
27-Jan-19 08:56 33.390320 -118.432213 220 2107ft 126kts
27-Jan-19 08:57 33.376750 -118.438091 76 3675ft 87kts
27-Jan-19 08:58 33.388441 -118.410339 110 4180ft 138kts
27-Jan-19 08:59 33.367869 -118.369227 100 4197ft 156kts
27-Jan-19 09:00 33.361546 -118.316694 99 4002ft 156kts
27-Jan-19 09:01 33.354163 -118.260732 99 4007ft 182kts
27-Jan-19 09:02 33.346194 -118.200135 99 4004ft 185kts
27-Jan-19 09:03 33.338137 -118.139048 99 4004ft 186kts
27-Jan-19 09:04 33.330391 -118.080466 99 4513ft 170kts
27-Jan-19 09:05 33.323084 -118.025566 99 5003ft 176kts
27-Jan-19 09:06 33.315119 -117.965777 99 4999ft 184kts
27-Jan-19 09:07 33.307190 -117.906565 99 4998ft 177kts
27-Jan-19 09:08 33.299412 -117.848759 99 4999ft 176kts
27-Jan-19 09:09 33.291582 -117.791109 99 4999ft 175kts
27-Jan-19 09:10 33.283739 -117.733267 99 4999ft 175kts
27-Jan-19 09:11 33.275903 -117.675631 99 4999ft 175kts
27-Jan-19 09:12 33.268032 -117.617934 99 4999ft 175kts
27-Jan-19 09:13 33.260119 -117.560289 99 4999ft 175kts
27-Jan-19 09:14 33.252186 -117.502628 99 4999ft 175kts
27-Jan-19 09:15 33.244205 -117.444755 99 4999ft 175kts
27-Jan-19 09:16 33.211312 -117.407443 156 4999ft 175kts
27-Jan-19 09:17 33.165553 -117.386293 160 4999ft 175kts
27-Jan-19 09:18 33.119555 -117.366825 160 4999ft 175kts
27-Jan-19 09:19 33.073188 -117.347335 161 4999ft 175kts
27-Jan-19 09:20 33.027097 -117.327984 161 4999ft 175kts
27-Jan-19 09:21 32.980932 -117.308617 161 4999ft 175kts
27-Jan-19 09:23 32.934634 -117.289226 161 4999ft 175kts
27-Jan-19 09:24 32.888564 -117.269947 161 4999ft 175kts
27-Jan-19 09:25 32.842159 -117.250547 161 4999ft 175kts
27-Jan-19 09:26 32.806437 -117.217557 105 5000ft 175kts
27-Jan-19 09:27 32.793968 -117.160006 104 4793ft 181kts
27-Jan-19 09:28 32.781608 -117.102450 104 4784ft 176kts
27-Jan-19 09:29 32.769518 -117.046063 104 4784ft 174kts
27-Jan-19 09:30 32.757643 -116.990645 104 4781ft 168kts
27-Jan-19 09:31 32.746927 -116.940403 104 4782ft 148kts
27-Jan-19 09:32 32.737096 -116.894265 104 4784ft 141kts
27-Jan-19 09:33 32.727516 -116.849258 104 4784ft 139kts
27-Jan-19 09:34 32.718037 -116.804692 104 4785ft 139kts
27-Jan-19 09:35 32.696684 -116.776132 208 4792ft 136kts
27-Jan-19 09:36 32.681003 -116.815651 250 4783ft 130kts
27-Jan-19 09:37 32.668456 -116.857804 250 4785ft 137kts
27-Jan-19 09:38 32.655538 -116.901255 250 4621ft 148kts
27-Jan-19 09:39 32.670706 -116.944150 296 3791ft 136kts
27-Jan-19 09:40 32.682493 -116.981165 287 3343ft 110kts
27-Jan-19 09:41 32.690855 -117.014218 286 2981ft 104kts
27-Jan-19 09:41 32.698127 -117.043722 286 2670ft 120kts
27-Jan-19 09:43 32.709843 -117.091797 286 1783ft 130kts
27-Jan-19 09:44 32.719317 -117.132551 285 1242ft 128kts
27-Jan-19 09:44 32.727842 -117.165971 286 348ft 105kts
27-Jan-19 09:45 32.733337 -117.188777 285 21ft 20kts
27-Jan-19 09:46 32.734804 -117.190544 59 21ft 0kts

Navigation Log

Ident Type
Flight plan parsing failed, navigation log unavailable